sensor_id;sensor_type;location;lat;lon;timestamp;P1;durP1;ratioP1;P2;durP2;ratioP2
85267;SDS011;75677;52.380;4.876;2024-03-23T00:57:14;7.87;;;1.60;;
85267;SDS011;75677;52.380;4.876;2024-03-23T00:59:39;8.67;;;1.40;;
85267;SDS011;75677;52.380;4.876;2024-03-23T01:02:04;9.23;;;1.60;;
85267;SDS011;75677;52.380;4.876;2024-03-23T01:04:30;9.60;;;1.53;;
85267;SDS011;75677;52.380;4.876;2024-03-23T01:06:55;12.53;;;1.83;;
85267;SDS011;75677;52.380;4.876;2024-03-23T01:09:20;7.50;;;1.67;;
85267;SDS011;75677;52.380;4.876;2024-03-23T01:11:46;9.93;;;1.63;;
85267;SDS011;75677;52.380;4.876;2024-03-23T01:14:11;8.67;;;2.07;;
85267;SDS011;75677;52.380;4.876;2024-03-23T01:16:36;6.83;;;1.70;;
85267;SDS011;75677;52.380;4.876;2024-03-23T01:19:01;8.63;;;1.77;;
85267;SDS011;75677;52.380;4.876;2024-03-23T01:21:27;11.18;;;2.08;;
85267;SDS011;75677;52.380;4.876;2024-03-23T01:23:52;7.67;;;1.73;;
85267;SDS011;75677;52.380;4.876;2024-03-23T01:26:18;8.03;;;1.70;;
85267;SDS011;75677;52.380;4.876;2024-03-23T01:28:43;10.37;;;2.43;;
85267;SDS011;75677;52.380;4.876;2024-03-23T01:31:08;8.37;;;1.93;;
85267;SDS011;75677;52.380;4.876;2024-03-23T01:33:34;7.07;;;2.13;;
85267;SDS011;75677;52.380;4.876;2024-03-23T01:35:59;10.57;;;1.97;;
85267;SDS011;75677;52.380;4.876;2024-03-23T01:38:24;6.93;;;1.77;;
85267;SDS011;75677;52.380;4.876;2024-03-23T01:40:49;8.87;;;1.77;;
85267;SDS011;75677;52.380;4.876;2024-03-23T01:43:22;10.80;;;2.30;;
85267;SDS011;75677;52.380;4.876;2024-03-23T01:45:47;6.87;;;1.47;;
85267;SDS011;75677;52.380;4.876;2024-03-23T01:48:12;7.03;;;1.90;;
85267;SDS011;75677;52.380;4.876;2024-03-23T01:50:38;10.60;;;2.47;;
85267;SDS011;75677;52.380;4.876;2024-03-23T01:53:04;8.15;;;1.83;;
85267;SDS011;75677;52.380;4.876;2024-03-23T01:55:32;8.43;;;2.15;;
85267;SDS011;75677;52.380;4.876;2024-03-23T01:57:58;8.10;;;2.30;;
85267;SDS011;75677;52.380;4.876;2024-03-23T02:00:23;9.45;;;2.08;;
85267;SDS011;75677;52.380;4.876;2024-03-23T02:02:49;9.70;;;2.00;;
85267;SDS011;75677;52.380;4.876;2024-03-23T02:05:14;8.77;;;1.80;;
85267;SDS011;75677;52.380;4.876;2024-03-23T02:07:40;8.52;;;1.58;;
85267;SDS011;75677;52.380;4.876;2024-03-23T02:10:07;8.80;;;1.77;;
85267;SDS011;75677;52.380;4.876;2024-03-23T02:12:33;7.93;;;1.58;;
85267;SDS011;75677;52.380;4.876;2024-03-23T02:14:59;7.30;;;1.63;;
85267;SDS011;75677;52.380;4.876;2024-03-23T02:17:25;8.68;;;1.60;;
85267;SDS011;75677;52.380;4.876;2024-03-23T02:19:50;7.57;;;1.30;;
85267;SDS011;75677;52.380;4.876;2024-03-23T02:22:16;9.25;;;1.40;;
85267;SDS011;75677;52.380;4.876;2024-03-23T02:24:41;6.18;;;1.60;;
85267;SDS011;75677;52.380;4.876;2024-03-23T02:27:07;8.88;;;1.65;;
85267;SDS011;75677;52.380;4.876;2024-03-23T02:29:32;8.23;;;1.83;;
85267;SDS011;75677;52.380;4.876;2024-03-23T02:31:58;9.43;;;1.83;;
85267;SDS011;75677;52.380;4.876;2024-03-23T02:34:24;7.55;;;1.42;;
85267;SDS011;75677;52.380;4.876;2024-03-23T02:36:49;7.30;;;1.20;;
85267;SDS011;75677;52.380;4.876;2024-03-23T02:39:14;6.87;;;1.10;;
85267;SDS011;75677;52.380;4.876;2024-03-23T02:41:40;5.60;;;1.30;;
85267;SDS011;75677;52.380;4.876;2024-03-23T02:44:05;8.10;;;1.47;;
85267;SDS011;75677;52.380;4.876;2024-03-23T02:46:30;10.60;;;1.50;;
85267;SDS011;75677;52.380;4.876;2024-03-23T02:48:56;5.83;;;1.60;;
85267;SDS011;75677;52.380;4.876;2024-03-23T02:51:21;7.10;;;1.58;;
85267;SDS011;75677;52.380;4.876;2024-03-23T02:53:47;6.10;;;1.27;;
85267;SDS011;75677;52.380;4.876;2024-03-23T02:56:12;8.43;;;1.67;;
85267;SDS011;75677;52.380;4.876;2024-03-23T02:58:41;4.15;;;1.00;;
85267;SDS011;75677;52.380;4.876;2024-03-23T03:01:06;11.05;;;1.35;;
85267;SDS011;75677;52.380;4.876;2024-03-23T03:03:31;5.67;;;1.10;;
85267;SDS011;75677;52.380;4.876;2024-03-23T03:05:57;7.32;;;1.63;;
85267;SDS011;75677;52.380;4.876;2024-03-23T03:08:23;6.45;;;1.42;;
85267;SDS011;75677;52.380;4.876;2024-03-23T03:10:48;8.02;;;1.92;;
85267;SDS011;75677;52.380;4.876;2024-03-23T03:13:13;7.00;;;1.33;;
85267;SDS011;75677;52.380;4.876;2024-03-23T03:15:40;8.17;;;1.13;;
85267;SDS011;75677;52.380;4.876;2024-03-23T03:18:06;5.63;;;1.42;;
85267;SDS011;75677;52.380;4.876;2024-03-23T03:20:31;6.73;;;1.10;;
85267;SDS011;75677;52.380;4.876;2024-03-23T03:22:56;6.00;;;1.43;;
85267;SDS011;75677;52.380;4.876;2024-03-23T03:25:22;5.23;;;0.97;;
85267;SDS011;75677;52.380;4.876;2024-03-23T03:27:47;6.37;;;0.70;;
85267;SDS011;75677;52.380;4.876;2024-03-23T03:30:12;7.27;;;1.40;;
85267;SDS011;75677;52.380;4.876;2024-03-23T03:32:38;5.85;;;0.98;;
85267;SDS011;75677;52.380;4.876;2024-03-23T03:35:03;3.97;;;0.70;;
85267;SDS011;75677;52.380;4.876;2024-03-23T03:37:29;5.53;;;1.23;;
85267;SDS011;75677;52.380;4.876;2024-03-23T03:39:55;6.10;;;0.97;;
85267;SDS011;75677;52.380;4.876;2024-03-23T03:42:20;5.77;;;1.30;;
85267;SDS011;75677;52.380;4.876;2024-03-23T03:44:45;7.65;;;1.23;;
85267;SDS011;75677;52.380;4.876;2024-03-23T03:47:11;7.43;;;1.30;;
85267;SDS011;75677;52.380;4.876;2024-03-23T03:49:36;5.00;;;1.13;;
85267;SDS011;75677;52.380;4.876;2024-03-23T03:52:01;5.30;;;1.17;;
85267;SDS011;75677;52.380;4.876;2024-03-23T03:54:27;5.90;;;1.13;;
85267;SDS011;75677;52.380;4.876;2024-03-23T03:56:52;5.63;;;0.80;;
85267;SDS011;75677;52.380;4.876;2024-03-23T03:59:18;5.50;;;1.33;;
85267;SDS011;75677;52.380;4.876;2024-03-23T04:01:43;7.33;;;1.40;;
85267;SDS011;75677;52.380;4.876;2024-03-23T04:04:08;5.60;;;1.40;;
85267;SDS011;75677;52.380;4.876;2024-03-23T04:06:34;10.32;;;1.63;;
85267;SDS011;75677;52.380;4.876;2024-03-23T04:08:59;6.25;;;1.00;;
85267;SDS011;75677;52.380;4.876;2024-03-23T04:11:24;6.40;;;1.17;;
85267;SDS011;75677;52.380;4.876;2024-03-23T04:13:50;5.75;;;1.05;;
85267;SDS011;75677;52.380;4.876;2024-03-23T04:16:26;5.83;;;0.87;;
85267;SDS011;75677;52.380;4.876;2024-03-23T04:18:57;5.32;;;1.35;;
85267;SDS011;75677;52.380;4.876;2024-03-23T04:21:22;6.23;;;1.03;;
85267;SDS011;75677;52.380;4.876;2024-03-23T04:23:48;5.80;;;0.97;;
85267;SDS011;75677;52.380;4.876;2024-03-23T04:26:13;6.47;;;1.03;;
85267;SDS011;75677;52.380;4.876;2024-03-23T04:28:40;6.07;;;1.08;;
85267;SDS011;75677;52.380;4.876;2024-03-23T04:31:05;4.63;;;1.23;;
85267;SDS011;75677;52.380;4.876;2024-03-23T04:33:30;7.20;;;1.13;;
85267;SDS011;75677;52.380;4.876;2024-03-23T04:35:56;6.80;;;0.90;;
85267;SDS011;75677;52.380;4.876;2024-03-23T04:38:22;6.80;;;1.27;;
85267;SDS011;75677;52.380;4.876;2024-03-23T04:40:59;6.93;;;1.05;;
85267;SDS011;75677;52.380;4.876;2024-03-23T04:43:25;4.53;;;0.68;;
85267;SDS011;75677;52.380;4.876;2024-03-23T04:48:17;6.77;;;1.33;;
85267;SDS011;75677;52.380;4.876;2024-03-23T04:50:46;6.22;;;1.13;;
85267;SDS011;75677;52.380;4.876;2024-03-23T04:53:11;5.00;;;0.67;;
85267;SDS011;75677;52.380;4.876;2024-03-23T04:55:36;5.50;;;1.27;;
85267;SDS011;75677;52.380;4.876;2024-03-23T04:58:02;4.90;;;1.08;;
85267;SDS011;75677;52.380;4.876;2024-03-23T05:00:28;7.72;;;1.30;;
85267;SDS011;75677;52.380;4.876;2024-03-23T05:02:53;5.97;;;1.20;;
85267;SDS011;75677;52.380;4.876;2024-03-23T05:05:18;5.53;;;0.87;;
85267;SDS011;75677;52.380;4.876;2024-03-23T05:07:44;6.70;;;1.27;;
85267;SDS011;75677;52.380;4.876;2024-03-23T05:10:09;5.37;;;1.07;;
85267;SDS011;75677;52.380;4.876;2024-03-23T05:12:36;6.72;;;1.38;;
85267;SDS011;75677;52.380;4.876;2024-03-23T05:17:28;7.93;;;0.80;;
85267;SDS011;75677;52.380;4.876;2024-03-23T05:19:53;6.10;;;1.20;;
85267;SDS011;75677;52.380;4.876;2024-03-23T05:22:19;5.73;;;1.10;;
85267;SDS011;75677;52.380;4.876;2024-03-23T05:24:45;6.93;;;1.30;;
85267;SDS011;75677;52.380;4.876;2024-03-23T05:29:35;4.77;;;0.97;;
85267;SDS011;75677;52.380;4.876;2024-03-23T05:32:01;4.30;;;0.90;;
85267;SDS011;75677;52.380;4.876;2024-03-23T05:34:26;5.33;;;0.97;;
85267;SDS011;75677;52.380;4.876;2024-03-23T05:36:53;7.85;;;1.33;;
85267;SDS011;75677;52.380;4.876;2024-03-23T05:39:18;3.90;;;0.97;;
85267;SDS011;75677;52.380;4.876;2024-03-23T05:41:46;4.50;;;0.80;;
85267;SDS011;75677;52.380;4.876;2024-03-23T05:44:12;6.23;;;1.03;;
85267;SDS011;75677;52.380;4.876;2024-03-23T05:46:37;4.50;;;0.80;;
85267;SDS011;75677;52.380;4.876;2024-03-23T05:49:03;7.55;;;1.73;;
85267;SDS011;75677;52.380;4.876;2024-03-23T05:51:28;4.40;;;1.00;;
85267;SDS011;75677;52.380;4.876;2024-03-23T05:53:53;5.70;;;1.00;;
85267;SDS011;75677;52.380;4.876;2024-03-23T05:56:19;8.63;;;1.43;;
85267;SDS011;75677;52.380;4.876;2024-03-23T05:58:45;6.82;;;1.02;;
85267;SDS011;75677;52.380;4.876;2024-03-23T06:01:11;5.90;;;1.05;;
85267;SDS011;75677;52.380;4.876;2024-03-23T06:06:03;4.77;;;0.77;;
85267;SDS011;75677;52.380;4.876;2024-03-23T06:08:29;5.43;;;1.10;;
85267;SDS011;75677;52.380;4.876;2024-03-23T06:10:55;5.95;;;1.30;;
85267;SDS011;75677;52.380;4.876;2024-03-23T06:13:20;4.95;;;0.88;;
85267;SDS011;75677;52.380;4.876;2024-03-23T06:15:49;5.03;;;0.93;;
85267;SDS011;75677;52.380;4.876;2024-03-23T06:18:15;6.13;;;0.98;;
85267;SDS011;75677;52.380;4.876;2024-03-23T06:20:40;5.73;;;0.90;;
85267;SDS011;75677;52.380;4.876;2024-03-23T06:23:05;6.20;;;1.10;;
85267;SDS011;75677;52.380;4.876;2024-03-23T06:25:31;5.32;;;1.00;;
85267;SDS011;75677;52.380;4.876;2024-03-23T06:27:56;7.17;;;1.17;;
85267;SDS011;75677;52.380;4.876;2024-03-23T06:30:23;5.43;;;0.90;;
85267;SDS011;75677;52.380;4.876;2024-03-23T06:32:48;4.45;;;0.80;;
85267;SDS011;75677;52.380;4.876;2024-03-23T06:35:14;5.73;;;1.07;;
85267;SDS011;75677;52.380;4.876;2024-03-23T06:37:39;4.93;;;0.88;;
85267;SDS011;75677;52.380;4.876;2024-03-23T06:40:06;3.63;;;0.80;;
85267;SDS011;75677;52.380;4.876;2024-03-23T06:42:34;7.13;;;1.20;;
85267;SDS011;75677;52.380;4.876;2024-03-23T06:44:59;5.17;;;1.40;;
85267;SDS011;75677;52.380;4.876;2024-03-23T06:47:25;4.83;;;1.13;;
85267;SDS011;75677;52.380;4.876;2024-03-23T06:49:50;6.43;;;1.20;;
85267;SDS011;75677;52.380;4.876;2024-03-23T06:52:16;8.47;;;1.33;;
85267;SDS011;75677;52.380;4.876;2024-03-23T06:54:41;6.07;;;1.10;;
85267;SDS011;75677;52.380;4.876;2024-03-23T06:57:06;6.37;;;1.00;;
85267;SDS011;75677;52.380;4.876;2024-03-23T06:59:32;5.93;;;1.10;;
85267;SDS011;75677;52.380;4.876;2024-03-23T07:01:57;6.75;;;1.25;;
85267;SDS011;75677;52.380;4.876;2024-03-23T07:04:23;4.53;;;1.13;;
85267;SDS011;75677;52.380;4.876;2024-03-23T07:06:48;6.60;;;1.23;;
85267;SDS011;75677;52.380;4.876;2024-03-23T07:09:13;6.20;;;1.33;;
85267;SDS011;75677;52.380;4.876;2024-03-23T07:11:39;5.63;;;1.25;;
85267;SDS011;75677;52.380;4.876;2024-03-23T07:14:04;5.70;;;0.90;;
85267;SDS011;75677;52.380;4.876;2024-03-23T07:16:30;6.40;;;1.88;;
85267;SDS011;75677;52.380;4.876;2024-03-23T07:18:55;5.57;;;1.33;;
85267;SDS011;75677;52.380;4.876;2024-03-23T07:21:21;6.13;;;1.10;;
85267;SDS011;75677;52.380;4.876;2024-03-23T07:23:47;5.85;;;1.02;;
85267;SDS011;75677;52.380;4.876;2024-03-23T07:26:12;5.67;;;0.90;;
85267;SDS011;75677;52.380;4.876;2024-03-23T07:28:38;5.70;;;1.27;;
85267;SDS011;75677;52.380;4.876;2024-03-23T07:31:08;8.52;;;1.35;;
85267;SDS011;75677;52.380;4.876;2024-03-23T07:33:35;4.60;;;0.90;;
85267;SDS011;75677;52.380;4.876;2024-03-23T07:36:02;5.57;;;1.00;;
85267;SDS011;75677;52.380;4.876;2024-03-23T07:38:28;6.78;;;1.10;;
85267;SDS011;75677;52.380;4.876;2024-03-23T07:41:09;9.30;;;0.95;;
85267;SDS011;75677;52.380;4.876;2024-03-23T07:43:40;7.53;;;1.00;;
85267;SDS011;75677;52.380;4.876;2024-03-23T07:46:05;6.25;;;1.00;;
85267;SDS011;75677;52.380;4.876;2024-03-23T07:48:31;5.75;;;1.23;;
85267;SDS011;75677;52.380;4.876;2024-03-23T07:53:32;4.43;;;0.68;;
85267;SDS011;75677;52.380;4.876;2024-03-23T07:55:59;5.45;;;0.80;;
85267;SDS011;75677;52.380;4.876;2024-03-23T07:58:26;5.72;;;0.90;;
85267;SDS011;75677;52.380;4.876;2024-03-23T08:00:52;7.15;;;1.10;;
85267;SDS011;75677;52.380;4.876;2024-03-23T08:03:18;4.82;;;0.90;;
85267;SDS011;75677;52.380;4.876;2024-03-23T08:05:43;7.93;;;1.00;;
85267;SDS011;75677;52.380;4.876;2024-03-23T08:08:08;4.47;;;1.00;;
85267;SDS011;75677;52.380;4.876;2024-03-23T08:10:34;9.07;;;0.97;;
85267;SDS011;75677;52.380;4.876;2024-03-23T08:12:59;6.38;;;1.10;;
85267;SDS011;75677;52.380;4.876;2024-03-23T08:15:25;11.50;;;1.65;;
85267;SDS011;75677;52.380;4.876;2024-03-23T08:17:50;8.97;;;1.20;;
85267;SDS011;75677;52.380;4.876;2024-03-23T08:20:15;10.32;;;0.98;;
85267;SDS011;75677;52.380;4.876;2024-03-23T08:22:41;7.30;;;1.23;;
85267;SDS011;75677;52.380;4.876;2024-03-23T08:25:06;5.27;;;1.10;;
85267;SDS011;75677;52.380;4.876;2024-03-23T08:27:31;6.00;;;1.20;;
85267;SDS011;75677;52.380;4.876;2024-03-23T08:29:58;6.55;;;1.73;;
85267;SDS011;75677;52.380;4.876;2024-03-23T08:32:23;7.07;;;0.82;;
85267;SDS011;75677;52.380;4.876;2024-03-23T08:34:48;7.57;;;1.27;;
85267;SDS011;75677;52.380;4.876;2024-03-23T08:37:14;7.83;;;0.83;;
85267;SDS011;75677;52.380;4.876;2024-03-23T08:39:39;6.77;;;1.47;;
85267;SDS011;75677;52.380;4.876;2024-03-23T08:42:04;6.30;;;0.85;;
85267;SDS011;75677;52.380;4.876;2024-03-23T08:44:30;6.35;;;1.15;;
85267;SDS011;75677;52.380;4.876;2024-03-23T08:46:56;7.30;;;1.40;;
85267;SDS011;75677;52.380;4.876;2024-03-23T08:49:21;7.20;;;1.50;;
85267;SDS011;75677;52.380;4.876;2024-03-23T08:51:46;6.20;;;0.90;;
85267;SDS011;75677;52.380;4.876;2024-03-23T08:54:12;8.38;;;1.27;;
85267;SDS011;75677;52.380;4.876;2024-03-23T08:56:37;5.63;;;1.00;;
85267;SDS011;75677;52.380;4.876;2024-03-23T08:59:03;3.78;;;0.70;;
85267;SDS011;75677;52.380;4.876;2024-03-23T09:01:28;4.97;;;0.77;;
85267;SDS011;75677;52.380;4.876;2024-03-23T09:03:53;5.72;;;0.82;;
85267;SDS011;75677;52.380;4.876;2024-03-23T09:06:19;7.27;;;1.53;;
85267;SDS011;75677;52.380;4.876;2024-03-23T09:08:44;5.20;;;1.20;;
85267;SDS011;75677;52.380;4.876;2024-03-23T09:11:10;7.23;;;1.10;;
85267;SDS011;75677;52.380;4.876;2024-03-23T09:13:36;5.95;;;1.00;;
85267;SDS011;75677;52.380;4.876;2024-03-23T09:18:31;6.35;;;1.00;;
85267;SDS011;75677;52.380;4.876;2024-03-23T09:20:57;8.93;;;1.10;;
85267;SDS011;75677;52.380;4.876;2024-03-23T09:23:22;5.40;;;0.80;;
85267;SDS011;75677;52.380;4.876;2024-03-23T09:25:48;5.30;;;1.00;;
85267;SDS011;75677;52.380;4.876;2024-03-23T09:28:13;5.22;;;1.52;;
85267;SDS011;75677;52.380;4.876;2024-03-23T09:30:39;3.97;;;0.83;;
85267;SDS011;75677;52.380;4.876;2024-03-23T09:33:07;4.13;;;0.90;;
85267;SDS011;75677;52.380;4.876;2024-03-23T09:35:36;5.25;;;1.20;;
85267;SDS011;75677;52.380;4.876;2024-03-23T09:38:02;6.63;;;1.05;;
85267;SDS011;75677;52.380;4.876;2024-03-23T09:40:28;4.97;;;1.65;;
85267;SDS011;75677;52.380;4.876;2024-03-23T09:42:53;6.13;;;1.30;;
85267;SDS011;75677;52.380;4.876;2024-03-23T09:45:21;3.05;;;0.75;;
85267;SDS011;75677;52.380;4.876;2024-03-23T09:47:47;5.00;;;0.88;;
85267;SDS011;75677;52.380;4.876;2024-03-23T09:50:13;3.90;;;0.63;;
85267;SDS011;75677;52.380;4.876;2024-03-23T09:52:39;5.55;;;0.88;;
85267;SDS011;75677;52.380;4.876;2024-03-23T09:55:06;6.15;;;1.10;;
85267;SDS011;75677;52.380;4.876;2024-03-23T09:57:33;4.68;;;0.85;;
85267;SDS011;75677;52.380;4.876;2024-03-23T09:59:59;5.63;;;0.90;;
85267;SDS011;75677;52.380;4.876;2024-03-23T10:02:24;4.90;;;1.00;;
85267;SDS011;75677;52.380;4.876;2024-03-23T10:07:18;6.53;;;0.90;;
85267;SDS011;75677;52.380;4.876;2024-03-23T10:09:44;6.97;;;1.17;;
85267;SDS011;75677;52.380;4.876;2024-03-23T10:12:11;6.43;;;0.80;;
85267;SDS011;75677;52.380;4.876;2024-03-23T10:14:39;4.30;;;0.90;;
85267;SDS011;75677;52.380;4.876;2024-03-23T10:17:21;6.25;;;0.80;;
85267;SDS011;75677;52.380;4.876;2024-03-23T10:19:50;6.82;;;1.20;;
85267;SDS011;75677;52.380;4.876;2024-03-23T10:22:18;5.85;;;0.98;;
85267;SDS011;75677;52.380;4.876;2024-03-23T10:24:44;4.88;;;0.73;;
85267;SDS011;75677;52.380;4.876;2024-03-23T10:27:15;6.10;;;0.95;;
85267;SDS011;75677;52.380;4.876;2024-03-23T10:29:42;6.72;;;1.13;;
85267;SDS011;75677;52.380;4.876;2024-03-23T10:32:12;6.30;;;1.40;;
85267;SDS011;75677;52.380;4.876;2024-03-23T10:34:38;4.78;;;1.00;;
85267;SDS011;75677;52.380;4.876;2024-03-23T10:37:04;5.78;;;0.90;;
85267;SDS011;75677;52.380;4.876;2024-03-23T10:39:34;6.82;;;1.10;;
85267;SDS011;75677;52.380;4.876;2024-03-23T10:42:07;6.45;;;0.90;;
85267;SDS011;75677;52.380;4.876;2024-03-23T10:44:35;7.28;;;1.30;;
85267;SDS011;75677;52.380;4.876;2024-03-23T10:47:01;8.60;;;1.95;;
85267;SDS011;75677;52.380;4.876;2024-03-23T10:49:28;7.13;;;1.13;;
85267;SDS011;75677;52.380;4.876;2024-03-23T10:52:02;6.00;;;0.90;;
85267;SDS011;75677;52.380;4.876;2024-03-23T10:54:29;8.35;;;1.35;;
85267;SDS011;75677;52.380;4.876;2024-03-23T10:57:01;6.43;;;1.02;;
85267;SDS011;75677;52.380;4.876;2024-03-23T10:59:33;5.22;;;1.30;;
85267;SDS011;75677;52.380;4.876;2024-03-23T11:02:01;4.97;;;0.75;;
85267;SDS011;75677;52.380;4.876;2024-03-23T11:07:01;4.38;;;0.80;;
85267;SDS011;75677;52.380;4.876;2024-03-23T11:14:47;5.05;;;0.88;;
85267;SDS011;75677;52.380;4.876;2024-03-23T11:17:17;5.85;;;1.25;;
85267;SDS011;75677;52.380;4.876;2024-03-23T11:19:43;5.13;;;1.17;;
85267;SDS011;75677;52.380;4.876;2024-03-23T11:22:09;5.50;;;0.80;;
85267;SDS011;75677;52.380;4.876;2024-03-23T11:24:34;6.32;;;0.95;;
85267;SDS011;75677;52.380;4.876;2024-03-23T11:27:00;4.88;;;0.90;;
85267;SDS011;75677;52.380;4.876;2024-03-23T11:29:28;6.47;;;1.30;;
85267;SDS011;75677;52.380;4.876;2024-03-23T11:31:55;4.70;;;1.17;;
85267;SDS011;75677;52.380;4.876;2024-03-23T11:34:20;6.93;;;1.00;;
85267;SDS011;75677;52.380;4.876;2024-03-23T11:36:46;4.28;;;0.70;;
85267;SDS011;75677;52.380;4.876;2024-03-23T11:41:50;6.20;;;1.13;;
85267;SDS011;75677;52.380;4.876;2024-03-23T11:44:17;4.65;;;0.88;;
85267;SDS011;75677;52.380;4.876;2024-03-23T11:46:47;5.47;;;1.02;;
85267;SDS011;75677;52.380;4.876;2024-03-23T11:49:22;8.02;;;1.00;;
85267;SDS011;75677;52.380;4.876;2024-03-23T11:51:48;6.00;;;1.15;;
85267;SDS011;75677;52.380;4.876;2024-03-23T11:54:14;5.68;;;1.40;;
85267;SDS011;75677;52.380;4.876;2024-03-23T11:56:40;5.80;;;1.13;;
85267;SDS011;75677;52.380;4.876;2024-03-23T11:59:08;6.22;;;0.98;;
85267;SDS011;75677;52.380;4.876;2024-03-23T12:01:34;5.95;;;0.80;;
85267;SDS011;75677;52.380;4.876;2024-03-23T12:03:59;5.38;;;0.60;;
85267;SDS011;75677;52.380;4.876;2024-03-23T12:06:24;5.13;;;0.90;;
85267;SDS011;75677;52.380;4.876;2024-03-23T12:08:50;6.15;;;0.90;;
85267;SDS011;75677;52.380;4.876;2024-03-23T12:11:16;4.88;;;0.80;;
85267;SDS011;75677;52.380;4.876;2024-03-23T12:13:45;3.50;;;0.90;;
85267;SDS011;75677;52.380;4.876;2024-03-23T12:16:12;4.75;;;0.70;;
85267;SDS011;75677;52.380;4.876;2024-03-23T12:18:48;5.05;;;0.65;;
85267;SDS011;75677;52.380;4.876;2024-03-23T12:21:14;4.68;;;1.20;;
85267;SDS011;75677;52.380;4.876;2024-03-23T12:23:40;5.45;;;0.70;;
85267;SDS011;75677;52.380;4.876;2024-03-23T12:26:06;5.47;;;0.70;;
85267;SDS011;75677;52.380;4.876;2024-03-23T12:28:31;5.63;;;0.70;;
85267;SDS011;75677;52.380;4.876;2024-03-23T12:30:57;5.78;;;1.13;;
85267;SDS011;75677;52.380;4.876;2024-03-23T12:33:23;5.75;;;0.73;;
85267;SDS011;75677;52.380;4.876;2024-03-23T12:35:48;6.43;;;1.13;;
85267;SDS011;75677;52.380;4.876;2024-03-23T12:38:15;5.93;;;1.10;;
85267;SDS011;75677;52.380;4.876;2024-03-23T12:40:41;4.18;;;1.00;;
85267;SDS011;75677;52.380;4.876;2024-03-23T12:43:06;5.50;;;0.90;;
85267;SDS011;75677;52.380;4.876;2024-03-23T12:45:32;5.50;;;0.82;;
85267;SDS011;75677;52.380;4.876;2024-03-23T12:47:58;5.45;;;0.82;;
85267;SDS011;75677;52.380;4.876;2024-03-23T12:50:23;4.43;;;0.67;;
85267;SDS011;75677;52.380;4.876;2024-03-23T12:52:49;4.83;;;0.90;;
85267;SDS011;75677;52.380;4.876;2024-03-23T12:55:14;4.93;;;0.60;;
85267;SDS011;75677;52.380;4.876;2024-03-23T12:57:40;6.75;;;1.05;;
85267;SDS011;75677;52.380;4.876;2024-03-23T13:00:08;4.97;;;1.00;;
85267;SDS011;75677;52.380;4.876;2024-03-23T13:02:36;3.80;;;1.00;;
85267;SDS011;75677;52.380;4.876;2024-03-23T13:05:02;6.47;;;1.23;;
85267;SDS011;75677;52.380;4.876;2024-03-23T13:07:28;5.38;;;1.00;;
85267;SDS011;75677;52.380;4.876;2024-03-23T13:09:53;4.43;;;0.97;;
85267;SDS011;75677;52.380;4.876;2024-03-23T13:12:19;4.17;;;1.43;;
85267;SDS011;75677;52.380;4.876;2024-03-23T13:14:45;4.45;;;0.73;;
85267;SDS011;75677;52.380;4.876;2024-03-23T13:17:11;4.65;;;0.85;;
85267;SDS011;75677;52.380;4.876;2024-03-23T13:19:36;4.22;;;1.20;;
85267;SDS011;75677;52.380;4.876;2024-03-23T13:22:02;5.10;;;0.93;;
85267;SDS011;75677;52.380;4.876;2024-03-23T13:24:28;6.20;;;0.82;;
85267;SDS011;75677;52.380;4.876;2024-03-23T13:26:54;4.35;;;1.02;;
85267;SDS011;75677;52.380;4.876;2024-03-23T13:29:20;5.05;;;0.77;;
85267;SDS011;75677;52.380;4.876;2024-03-23T13:31:47;4.35;;;0.55;;
85267;SDS011;75677;52.380;4.876;2024-03-23T13:34:13;3.95;;;1.00;;
85267;SDS011;75677;52.380;4.876;2024-03-23T13:36:42;4.68;;;0.70;;
85267;SDS011;75677;52.380;4.876;2024-03-23T13:39:08;4.57;;;0.80;;
85267;SDS011;75677;52.380;4.876;2024-03-23T13:41:40;4.43;;;0.73;;
85267;SDS011;75677;52.380;4.876;2024-03-23T13:44:06;4.75;;;1.00;;
85267;SDS011;75677;52.380;4.876;2024-03-23T13:46:33;5.65;;;1.17;;
85267;SDS011;75677;52.380;4.876;2024-03-23T13:51:24;3.20;;;0.57;;
85267;SDS011;75677;52.380;4.876;2024-03-23T13:53:52;3.17;;;0.60;;
85267;SDS011;75677;52.380;4.876;2024-03-23T13:56:26;3.60;;;0.68;;
85267;SDS011;75677;52.380;4.876;2024-03-23T13:58:57;11.13;;;1.10;;
85267;SDS011;75677;52.380;4.876;2024-03-23T14:01:23;5.15;;;0.63;;
